Time;durP1;ratioP1;P1;durP2;ratioP2;P2;SDS_P1;SDS_P2;PMS_P1;PMS_P2;Temp;Humidity;BMP_temperature;BMP_pressure;BME280_temperature;BME280_humidity;BME280_pressure;Samples;Min_cycle;Max_cycle;Signal;HPM_P1;HPM_P2
2021/03/18 00:01:52;;;;;;;28.70;11.80;;;;;;;2.01;65.27;98974.36;124163;1106;104271;-69
2021/03/18 00:04:20;;;;;;;30.95;13.53;;;;;;;2.00;65.21;98967.41;124305;1105;104207;-69
2021/03/18 00:06:48;;;;;;;27.27;12.50;;;;;;;2.01;65.45;98971.74;124259;1105;104268;-70
2021/03/18 00:09:18;;;;;;;28.23;12.23;;;;;;;1.99;65.79;98965.70;124298;1105;104159;-68
2021/03/18 00:11:50;;;;;;;27.97;12.80;;;;;;;1.99;65.27;98968.32;124273;1105;104654;-70
2021/03/18 00:14:21;;;;;;;29.77;12.57;;;;;;;1.97;65.77;98967.53;124287;1105;104201;-69
2021/03/18 00:16:49;;;;;;;29.27;13.33;;;;;;;1.97;65.64;98966.69;124300;1105;104261;-68
2021/03/18 00:19:18;;;;;;;30.43;13.43;;;;;;;1.98;65.59;98965.77;124237;1105;104240;-68
2021/03/18 00:21:47;;;;;;;28.13;13.37;;;;;;;1.98;65.86;98971.86;124301;1106;104217;-68
2021/03/18 00:24:15;;;;;;;28.03;13.20;;;;;;;1.98;65.33;98971.86;124304;1105;104315;-69
2021/03/18 00:26:43;;;;;;;32.50;14.70;;;;;;;2.00;65.17;98972.66;124245;1105;104261;-70
2021/03/18 00:29:09;;;;;;;35.03;14.43;;;;;;;2.00;65.33;98969.19;124241;1105;104248;-69
2021/03/18 00:31:54;;;;;;;33.50;14.93;;;;;;;2.00;65.70;98975.28;124245;1105;104272;-69
2021/03/18 00:34:22;;;;;;;34.70;14.70;;;;;;;2.01;66.19;98963.03;124226;1104;104220;-69
2021/03/18 00:36:49;;;;;;;30.27;14.43;;;;;;;2.03;65.46;98967.29;124226;1106;104294;-69
2021/03/18 00:39:16;;;;;;;29.23;14.47;;;;;;;2.00;65.27;98971.81;124270;1105;104159;-70
2021/03/18 00:41:43;;;;;;;33.20;14.83;;;;;;;1.97;65.44;98967.53;124223;1105;104249;-70
2021/03/18 00:44:10;;;;;;;31.67;14.47;;;;;;;1.96;65.53;98972.84;124242;1105;104179;-69
2021/03/18 00:46:37;;;;;;;36.10;14.68;;;;;;;1.96;65.74;98968.44;124279;1105;104258;-70
2021/03/18 00:49:05;;;;;;;31.13;14.73;;;;;;;1.93;65.79;98972.05;124257;1105;104358;-69
2021/03/18 00:51:33;;;;;;;30.30;14.95;;;;;;;1.87;65.29;98961.80;124081;1105;104639;-69
2021/03/18 00:53:59;;;;;;;32.63;14.63;;;;;;;1.87;65.67;98961.80;124224;1105;104185;-70
2021/03/18 00:56:27;;;;;;;29.67;14.27;;;;;;;1.84;65.56;98961.91;124296;1105;104187;-71
2021/03/18 00:58:55;;;;;;;31.67;14.53;;;;;;;1.83;65.69;98957.58;124259;1105;104178;-69
2021/03/18 01:01:26;;;;;;;27.37;13.17;;;;;;;1.81;65.83;98962.02;124279;1105;104312;-69
2021/03/18 01:03:54;;;;;;;24.30;11.60;;;;;;;1.77;65.88;98963.05;124292;1105;104195;-68
2021/03/18 01:06:31;;;;;;;28.07;12.43;;;;;;;1.74;65.95;98965.79;124204;1105;104277;-70
2021/03/18 01:08:59;;;;;;;25.57;11.47;;;;;;;1.69;65.90;98967.73;124122;1105;104265;-69
2021/03/18 01:11:36;;;;;;;25.90;12.37;;;;;;;1.69;65.67;98958.11;124239;1105;104197;-69
2021/03/18 01:14:10;;;;;;;27.73;11.30;;;;;;;1.68;65.68;98955.53;125392;1105;103070;-69
2021/03/18 01:16:40;;;;;;;;;;;;;;;1.66;66.02;98954.73;124058;1105;104165;-68
2021/03/18 01:19:10;;;;;;;27.35;11.75;;;;;;;1.66;65.92;98952.98;123961;1105;104239;-69
2021/03/18 01:21:44;;;;;;;26.60;11.50;;;;;;;1.68;66.07;98953.78;124213;1105;104204;-69
2021/03/18 01:24:14;;;;;;;25.23;10.83;;;;;;;1.68;65.40;98947.66;124211;1105;104255;-68
2021/03/18 01:26:43;;;;;;;30.90;12.30;;;;;;;1.66;65.86;98944.24;124186;1105;104178;-69
2021/03/18 01:29:11;;;;;;;29.33;13.07;;;;;;;1.65;65.82;98943.41;124083;1105;104210;-69
2021/03/18 01:31:39;;;;;;;27.00;11.87;;;;;;;1.64;65.97;98950.40;124184;1105;104278;-68
2021/03/18 01:34:07;;;;;;;27.47;11.87;;;;;;;1.64;65.57;98947.78;124169;1105;104271;-71
2021/03/18 01:36:38;;;;;;;26.57;11.63;;;;;;;1.66;66.13;98952.11;124204;1105;104185;-68
2021/03/18 01:39:06;;;;;;;27.90;11.93;;;;;;;1.64;65.69;98949.56;124191;1106;104262;-70
2021/03/18 01:41:35;;;;;;;27.67;12.10;;;;;;;1.64;65.84;98942.53;124291;1105;104185;-68
2021/03/18 01:44:03;;;;;;;25.87;11.70;;;;;;;1.64;65.68;98939.91;124253;1105;104252;-68
2021/03/18 01:46:31;;;;;;;27.10;12.40;;;;;;;1.63;65.52;98937.36;124207;1105;104286;-69
2021/03/18 01:48:59;;;;;;;28.17;12.17;;;;;;;1.63;65.96;98937.36;123917;1106;104383;-70
2021/03/18 01:51:27;;;;;;;26.23;11.87;;;;;;;1.63;65.86;98943.45;124217;1105;104261;-69
2021/03/18 01:53:54;;;;;;;27.63;12.07;;;;;;;1.63;65.90;98943.45;124193;1105;104268;-70
2021/03/18 01:56:22;;;;;;;27.57;11.63;;;;;;;1.61;65.50;98947.92;124242;1105;104249;-70
2021/03/18 01:58:49;;;;;;;25.97;12.55;;;;;;;1.61;65.87;98947.05;124218;1105;104220;-71
2021/03/18 02:01:18;;;;;;;25.25;11.18;;;;;;;1.59;66.05;98948.87;124296;1105;104253;-70
2021/03/18 02:03:47;;;;;;;25.97;11.97;;;;;;;1.57;65.44;98946.33;124239;1105;104185;-69
2021/03/18 02:06:16;;;;;;;23.93;11.30;;;;;;;1.55;65.71;98940.28;124183;1105;104239;-69
2021/03/18 02:08:43;;;;;;;26.50;11.83;;;;;;;1.51;65.50;98941.31;124245;1105;104178;-69
2021/03/18 02:11:10;;;;;;;27.40;12.40;;;;;;;1.50;66.00;98939.59;124132;1105;104268;-69
2021/03/18 02:13:37;;;;;;;26.80;11.10;;;;;;;1.49;65.87;98943.13;124216;1105;104238;-69
2021/03/18 02:16:11;;;;;;;25.05;10.60;;;;;;;1.51;65.67;98941.31;124229;1105;104188;-68
2021/03/18 02:19:09;;;;;;;25.55;11.10;;;;;;;1.51;65.89;98943.94;124214;1105;104214;-69
2021/03/18 02:21:36;;;;;;;26.77;11.23;;;;;;;1.49;65.79;98941.34;124201;1105;104720;-69
2021/03/18 02:24:12;;;;;;;27.25;12.43;;;;;;;1.46;65.99;98940.63;124201;1105;104178;-69
2021/03/18 02:27:53;;;;;;;26.37;11.10;;;;;;;1.45;65.72;98942.37;124188;1105;104312;-68
2021/03/18 02:30:44;;;;;;;22.43;10.47;;;;;;;1.45;65.80;98941.53;123944;1109;104344;-68
2021/03/18 02:33:33;;;;;;;28.77;12.80;;;;;;;1.45;66.09;98952.02;124220;1105;104172;-68
2021/03/18 02:36:15;;;;;;;25.17;11.27;;;;;;;1.44;66.20;98943.28;124224;1105;104192;-67
2021/03/18 02:38:53;;;;;;;23.77;10.20;;;;;;;1.44;66.10;98942.45;124191;1105;104217;-67
2021/03/18 02:41:24;;;;;;;25.20;10.37;;;;;;;1.41;66.25;98956.53;124262;1105;104280;-67
2021/03/18 02:44:02;;;;;;;24.40;10.47;;;;;;;1.42;66.07;98949.51;124224;1105;104283;-68
2021/03/18 02:46:30;;;;;;;24.60;10.00;;;;;;;1.42;66.04;98955.63;124264;1105;104256;-69
2021/03/18 02:49:02;;;;;;;23.77;10.23;;;;;;;1.43;65.73;98959.09;124314;1105;104251;-69
2021/03/18 02:51:32;;;;;;;23.57;9.57;;;;;;;1.41;65.68;98959.16;124261;1105;104217;-70
2021/03/18 02:54:07;;;;;;;23.77;10.27;;;;;;;1.39;66.18;98953.11;124199;1105;104200;-69
2021/03/18 02:56:40;;;;;;;24.70;10.33;;;;;;;1.38;66.24;98953.16;124178;1105;104287;-67
2021/03/18 02:59:13;;;;;;;24.00;10.60;;;;;;;1.37;66.03;98957.55;124263;1105;104223;-68
2021/03/18 03:01:43;;;;;;;22.23;9.47;;;;;;;1.37;65.82;98954.06;124168;1105;104239;-68
2021/03/18 03:04:13;;;;;;;22.13;10.10;;;;;;;1.39;66.12;98965.34;124232;1105;104321;-68
2021/03/18 03:06:43;;;;;;;24.07;9.73;;;;;;;1.37;66.16;98965.42;124248;1105;104259;-68
2021/03/18 03:09:11;;;;;;;25.83;10.40;;;;;;;1.35;65.93;98967.23;124248;1105;104256;-68
2021/03/18 03:11:40;;;;;;;22.23;10.23;;;;;;;1.33;66.36;98961.20;124167;1106;104179;-70
2021/03/18 03:14:09;;;;;;;21.93;9.93;;;;;;;1.31;65.96;98958.62;123990;1105;104310;-69
2021/03/18 03:16:38;;;;;;;24.87;10.17;;;;;;;1.29;65.65;98967.45;124234;1105;104277;-69
2021/03/18 03:19:07;;;;;;;24.57;10.83;;;;;;;1.28;66.32;98965.75;123891;1105;104271;-68
2021/03/18 03:21:34;;;;;;;26.20;10.67;;;;;;;1.29;65.83;98962.22;124230;1105;104503;-68
2021/03/18 03:24:06;;;;;;;25.17;10.30;;;;;;;1.30;65.96;98956.06;124199;1105;104239;-69
2021/03/18 03:26:34;;;;;;;24.70;10.87;;;;;;;1.30;65.96;98971.79;124211;1105;104242;-68
2021/03/18 03:29:02;;;;;;;23.35;9.95;;;;;;;1.29;65.82;98951.73;124243;1105;104723;-68
2021/03/18 03:31:30;;;;;;;19.77;9.13;;;;;;;1.30;65.64;98959.53;124252;1105;104245;-68
2021/03/18 03:34:07;;;;;;;21.37;9.97;;;;;;;1.30;66.24;98963.92;124247;1105;104309;-68
2021/03/18 03:36:35;;;;;;;23.50;9.93;;;;;;;1.30;65.70;98948.20;124236;1105;104259;-68
2021/03/18 03:39:07;;;;;;;27.50;10.60;;;;;;;1.30;66.06;98954.28;124255;1105;104368;-67
2021/03/18 03:41:35;;;;;;;22.07;8.93;;;;;;;1.32;66.41;98951.63;124223;1105;104248;-69
2021/03/18 03:44:05;;;;;;;25.33;9.23;;;;;;;1.33;66.38;98953.34;124286;1105;104162;-68
2021/03/18 03:46:33;;;;;;;23.73;9.57;;;;;;;1.32;65.71;98957.70;124254;1105;104155;-69
2021/03/18 03:49:01;;;;;;;24.83;10.10;;;;;;;1.31;65.68;98961.23;124230;1105;104162;-68
2021/03/18 03:51:43;;;;;;;20.87;9.07;;;;;;;1.33;65.95;98966.44;124224;1105;104157;-69
2021/03/18 03:54:11;;;;;;;23.27;10.00;;;;;;;1.32;66.35;98969.97;124267;1105;104181;-69
2021/03/18 03:57:01;;;;;;;22.77;9.93;;;;;;;1.32;65.87;98970.81;124245;1104;104182;-67
2021/03/18 03:59:34;;;;;;;23.70;9.07;;;;;;;1.33;66.35;98969.06;124235;1105;104300;-69
2021/03/18 04:02:04;;;;;;;25.62;10.03;;;;;;;1.34;66.02;98970.77;124222;1105;104169;-69
2021/03/18 04:04:51;;;;;;;25.80;9.50;;;;;;;1.31;66.17;98969.09;124225;1105;104256;-69
2021/03/18 04:07:35;;;;;;;24.33;10.27;;;;;;;1.33;66.12;98966.44;124253;1105;104169;-69
2021/03/18 04:10:04;;;;;;;25.90;10.83;;;;;;;1.33;66.05;98969.90;124208;1105;104214;-68
2021/03/18 04:12:36;;;;;;;25.40;10.50;;;;;;;1.34;66.31;98968.16;124278;1105;104265;-68
2021/03/18 04:15:11;;;;;;;24.30;10.53;;;;;;;1.32;66.18;98977.83;124245;1105;104156;-69
2021/03/18 04:17:42;;;;;;;23.10;9.70;;;;;;;1.29;66.04;98977.94;124280;1105;104306;-70
2021/03/18 04:20:13;;;;;;;25.10;9.65;;;;;;;1.26;66.15;98978.05;124251;1105;104178;-70
2021/03/18 04:22:45;;;;;;;21.23;9.57;;;;;;;1.26;65.79;98975.43;123932;1105;104634;-70
2021/03/18 04:25:13;;;;;;;26.20;12.00;;;;;;;1.25;65.88;98973.72;124277;1105;105772;-69
2021/03/18 04:27:41;;;;;;;26.73;11.63;;;;;;;1.24;65.94;98978.09;124235;1104;104181;-70
2021/03/18 04:30:10;;;;;;;28.65;11.25;;;;;;;1.25;66.03;98985.04;124178;1105;104239;-69
2021/03/18 04:32:40;;;;;;;24.70;10.83;;;;;;;1.25;66.16;98981.58;124237;1105;104303;-71
2021/03/18 04:35:11;;;;;;;26.03;10.97;;;;;;;1.22;66.56;98992.17;124229;1105;104316;-68
2021/03/18 04:37:39;;;;;;;29.27;12.60;;;;;;;1.19;66.13;98993.15;124236;1105;104214;-69
2021/03/18 04:40:10;;;;;;;27.73;11.77;;;;;;;1.17;65.93;98985.32;124197;1105;104191;-69
2021/03/18 04:42:37;;;;;;;28.07;12.13;;;;;;;1.18;66.19;98988.81;124259;1105;104326;-71
2021/03/18 04:45:07;;;;;;;28.50;12.07;;;;;;;1.18;65.93;98983.58;123968;1105;104271;-69
2021/03/18 04:47:36;;;;;;;27.80;12.10;;;;;;;1.16;66.01;98993.25;123989;1105;104190;-67
2021/03/18 04:50:09;;;;;;;26.63;11.73;;;;;;;1.10;66.12;98989.06;124226;1105;104285;-68
2021/03/18 04:52:39;;;;;;;27.57;12.30;;;;;;;1.09;65.92;98994.37;123932;1105;104237;-68
2021/03/18 04:55:09;;;;;;;27.17;11.90;;;;;;;1.08;66.16;98993.50;124259;1105;104185;-69
2021/03/18 04:57:42;;;;;;;28.37;12.33;;;;;;;1.08;66.34;98993.50;124222;1105;104160;-70
2021/03/18 05:00:11;;;;;;;27.98;12.13;;;;;;;1.09;66.12;99002.23;123966;1105;104159;-69
2021/03/18 05:02:42;;;;;;;28.13;12.73;;;;;;;1.07;66.29;99004.89;124267;1105;104213;-68
2021/03/18 05:05:19;;;;;;;29.43;12.07;;;;;;;1.06;66.37;99003.17;124076;1105;104210;-68
2021/03/18 05:07:49;;;;;;;31.37;13.70;;;;;;;1.03;66.31;99006.77;124234;1105;104258;-68
2021/03/18 05:10:20;;;;;;;29.45;13.65;;;;;;;1.04;66.39;99013.72;124236;1105;104662;-69
2021/03/18 05:12:48;;;;;;;31.30;13.47;;;;;;;1.02;66.42;99010.30;124195;1105;104255;-69
2021/03/18 05:15:16;;;;;;;34.20;14.27;;;;;;;1.00;66.17;99008.66;125555;1105;104437;-68
2021/03/18 05:17:44;;;;;;;32.50;14.83;;;;;;;0.99;66.10;99012.18;124156;1105;104373;-70
2021/03/18 05:20:15;;;;;;;32.17;14.03;;;;;;;0.98;66.08;99005.23;124730;1105;104175;-67
2021/03/18 05:22:46;;;;;;;31.95;14.75;;;;;;;0.97;66.07;99006.14;124161;1105;104253;-70
2021/03/18 05:25:15;;;;;;;35.80;15.77;;;;;;;0.94;66.55;99007.08;124261;1105;104245;-68
2021/03/18 05:27:43;;;;;;;34.63;16.77;;;;;;;0.94;66.21;99012.31;124224;1105;104345;-72
2021/03/18 05:30:12;;;;;;;34.37;16.03;;;;;;;0.93;66.26;99010.61;124243;1105;104255;-71
2021/03/18 05:32:40;;;;;;;30.97;14.97;;;;;;;0.95;66.40;99015.81;124305;1105;104258;-72
2021/03/18 05:35:09;;;;;;;32.27;14.17;;;;;;;0.94;66.13;99017.56;124309;1105;104238;-72
2021/03/18 05:37:37;;;;;;;33.40;14.40;;;;;;;0.93;66.30;99020.24;124343;1105;104235;-71
2021/03/18 05:40:09;;;;;;;29.30;14.07;;;;;;;0.95;66.38;99021.05;124381;1105;104320;-70
2021/03/18 05:42:37;;;;;;;29.47;14.17;;;;;;;0.94;66.20;99025.41;124250;1105;104294;-70
2021/03/18 05:45:07;;;;;;;31.55;13.65;;;;;;;0.95;66.40;99032.37;124188;1105;104239;-72
2021/03/18 05:47:35;;;;;;;28.43;13.60;;;;;;;0.96;66.34;99028.84;124265;1105;104341;-71
2021/03/18 05:50:07;;;;;;;28.43;12.87;;;;;;;0.94;66.23;99027.20;124255;1106;104182;-70
2021/03/18 05:52:35;;;;;;;31.90;13.57;;;;;;;0.94;66.44;99027.20;124005;1105;104443;-69
2021/03/18 05:55:04;;;;;;;32.87;14.40;;;;;;;0.94;66.54;99033.27;124217;1105;104265;-70
2021/03/18 05:57:34;;;;;;;29.13;13.70;;;;;;;0.98;66.31;99036.66;124155;1105;104242;-72
2021/03/18 06:00:05;;;;;;;29.40;13.10;;;;;;;1.01;66.65;99034.78;124286;1105;104286;-71
2021/03/18 06:02:33;;;;;;;28.53;13.90;;;;;;;1.04;66.52;99034.67;124343;1105;104179;-72
2021/03/18 06:05:07;;;;;;;30.00;13.00;;;;;;;1.04;66.29;99039.05;124282;1105;104289;-71
2021/03/18 06:07:38;;;;;;;30.10;14.85;;;;;;;1.01;66.32;99040.02;124232;1105;104184;-70
2021/03/18 06:10:14;;;;;;;35.33;15.67;;;;;;;1.02;66.46;99039.11;124222;1105;104181;-71
2021/03/18 06:12:41;;;;;;;32.70;15.03;;;;;;;1.08;66.35;99039.81;124261;1105;104285;-72
2021/03/18 06:15:11;;;;;;;30.67;13.73;;;;;;;1.07;66.28;99041.56;124004;1105;104181;-73
2021/03/18 06:17:39;;;;;;;30.47;14.40;;;;;;;1.11;66.11;99044.95;124249;1105;104306;-72
2021/03/18 06:20:11;;;;;;;32.00;13.07;;;;;;;1.13;66.43;99046.59;124271;1105;104280;-72
2021/03/18 06:22:42;;;;;;;29.97;14.90;;;;;;;1.12;66.50;99051.91;124300;1105;104198;-71
2021/03/18 06:25:24;;;;;;;31.47;14.53;;;;;;;1.12;65.99;99047.50;124194;1105;104162;-72
2021/03/18 06:28:19;;;;;;;27.43;12.47;;;;;;;1.13;66.42;99056.23;124243;1105;104168;-72
2021/03/18 06:30:54;;;;;;;29.47;13.93;;;;;;;1.10;66.46;99054.56;124198;1105;104182;-72
2021/03/18 06:33:24;;;;;;;30.40;13.13;;;;;;;1.10;66.25;99046.70;124153;1105;104286;-72
2021/03/18 06:35:52;;;;;;;28.50;13.07;;;;;;;1.15;66.75;99060.50;123994;1105;104679;-72
2021/03/18 06:38:26;;;;;;;28.47;12.73;;;;;;;1.25;66.61;99054.95;124233;1105;104264;-73
2021/03/18 06:40:54;;;;;;;30.93;13.90;;;;;;;1.31;66.70;99054.74;124202;1105;104345;-72
2021/03/18 06:43:41;;;;;;;29.90;14.57;;;;;;;1.39;66.70;99065.82;124241;1105;104185;-72
2021/03/18 06:46:21;;;;;;;31.00;13.80;;;;;;;1.50;65.79;99062.81;124163;1105;104191;-72
2021/03/18 06:48:49;;;;;;;30.70;13.23;;;;;;;1.62;66.84;99054.52;124245;1105;104261;-72
2021/03/18 06:51:23;;;;;;;28.13;12.73;;;;;;;1.69;66.39;99056.89;124210;1105;104242;-72
2021/03/18 06:53:54;;;;;;;31.43;13.97;;;;;;;1.75;65.94;99059.29;124200;1105;104187;-72
2021/03/18 06:56:26;;;;;;;29.90;13.73;;;;;;;1.85;66.45;99063.29;124268;1105;104258;-72
2021/03/18 06:58:54;;;;;;;27.73;11.27;;;;;;;1.98;66.73;99061.06;125559;1104;103823;-73
2021/03/18 07:01:32;;;;;;;27.40;12.10;;;;;;;2.07;66.30;99051.98;123989;1105;104271;-72
2021/03/18 07:04:02;;;;;;;26.17;11.80;;;;;;;2.22;66.26;99056.64;124241;1105;104197;-72
2021/03/18 07:06:52;;;;;;;54.27;25.57;;;;;;;2.35;66.29;99058.80;124273;1105;104160;-72
2021/03/18 07:09:19;;;;;;;30.35;13.50;;;;;;;2.47;66.19;99055.67;124236;1105;104331;-73
2021/03/18 07:11:49;;;;;;;27.50;13.07;;;;;;;2.59;66.16;99042.98;124239;1105;104265;-73
2021/03/18 07:14:32;;;;;;;26.70;11.90;;;;;;;2.62;66.26;99048.11;124282;1105;104204;-72
2021/03/18 07:16:59;;;;;;;25.50;11.37;;;;;;;2.59;66.06;99043.84;124252;1105;104261;-73
2021/03/18 07:19:28;;;;;;;24.33;9.57;;;;;;;2.57;66.54;99048.31;124244;1105;104610;-73
2021/03/18 07:21:57;;;;;;;21.20;8.63;;;;;;;2.55;66.27;99044.88;124263;1105;104296;-72
2021/03/18 07:24:27;;;;;;;25.03;10.53;;;;;;;2.53;66.54;99049.34;124268;1105;104168;-71
2021/03/18 07:26:57;;;;;;;26.37;11.23;;;;;;;2.51;65.86;99044.13;124247;1105;104217;-72
2021/03/18 07:29:29;;;;;;;26.40;11.50;;;;;;;2.52;65.81;99051.09;124200;1105;104261;-73
2021/03/18 07:31:56;;;;;;;22.60;9.70;;;;;;;2.51;66.43;99041.52;124312;1105;104213;-71
2021/03/18 07:34:25;;;;;;;22.87;9.27;;;;;;;2.59;65.85;99035.97;124289;1106;104334;-73
2021/03/18 07:37:10;;;;;;;24.50;11.17;;;;;;;2.72;66.74;99041.57;124237;1105;104200;-72
2021/03/18 07:39:39;;;;;;;22.07;9.37;;;;;;;2.70;66.45;99050.41;124043;1105;104223;-72
2021/03/18 07:42:08;;;;;;;25.13;10.40;;;;;;;2.68;66.34;99038.20;124212;1105;104307;-72
2021/03/18 07:44:37;;;;;;;22.03;9.23;;;;;;;2.83;66.32;99043.75;123995;1106;104188;-73
2021/03/18 07:47:07;;;;;;;25.37;11.20;;;;;;;2.87;66.09;99042.70;124463;1105;104296;-72
2021/03/18 07:49:49;;;;;;;24.60;10.40;;;;;;;2.85;65.84;99038.45;124249;1105;104155;-72
2021/03/18 07:52:21;;;;;;;21.50;8.33;;;;;;;2.87;65.52;99044.47;124233;1105;104256;-71
2021/03/18 07:54:51;;;;;;;18.37;6.93;;;;;;;2.90;65.67;99042.58;124224;1105;104258;-72
2021/03/18 07:57:18;;;;;;;19.60;8.00;;;;;;;2.95;66.37;99032.73;124125;1105;104394;-73
2021/03/18 07:59:45;;;;;;;24.23;9.50;;;;;;;2.98;66.23;99043.13;124248;1105;104165;-71
2021/03/18 08:02:17;;;;;;;22.37;9.27;;;;;;;3.05;65.76;99040.24;124226;1104;104181;-72
2021/03/18 08:04:48;;;;;;;19.13;7.37;;;;;;;3.12;66.08;99036.41;124317;1105;104178;-75
2021/03/18 08:07:37;;;;;;;21.37;8.57;;;;;;;3.16;65.68;99024.84;124259;1105;104188;-73
2021/03/18 08:10:20;;;;;;;20.90;8.33;;;;;;;3.22;65.46;99026.37;124271;1105;104185;-72
2021/03/18 08:13:05;;;;;;;21.80;8.65;;;;;;;3.28;66.28;99028.72;124330;1105;104232;-73
2021/03/18 08:15:38;;;;;;;19.73;8.73;;;;;;;3.34;65.67;99028.45;124033;1105;104551;-71
2021/03/18 08:18:14;;;;;;;17.92;7.87;;;;;;;3.43;65.97;99028.05;124265;1105;104209;-72
2021/03/18 08:20:42;;;;;;;20.65;8.20;;;;;;;3.48;65.99;99027.84;124214;1105;104248;-72
2021/03/18 08:23:24;;;;;;;19.35;7.22;;;;;;;3.54;65.99;99029.36;124257;1105;104158;-72
2021/03/18 08:25:57;;;;;;;19.60;7.03;;;;;;;3.62;65.65;99024.63;124208;1105;104249;-72
2021/03/18 08:28:49;;;;;;;18.00;6.45;;;;;;;3.67;65.79;99022.61;124230;1105;104204;-72
2021/03/18 08:31:20;;;;;;;10.60;4.67;;;;;;;3.79;65.79;99018.59;124244;1105;104254;-73
2021/03/18 08:33:58;;;;;;;10.97;3.87;;;;;;;3.97;65.41;99022.16;124239;1105;104640;-72
2021/03/18 08:36:37;;;;;;;11.03;4.17;;;;;;;4.20;65.65;99022.00;125194;1105;104137;-72
2021/03/18 08:39:11;;;;;;;15.70;5.50;;;;;;;4.44;65.81;99009.45;124656;1105;104249;-71
2021/03/18 08:41:44;;;;;;;11.50;4.50;;;;;;;4.70;65.77;99016.05;124275;1105;104239;-72
2021/03/18 08:44:28;;;;;;;15.77;5.70;;;;;;;4.77;65.08;99013.98;124284;1105;104239;-71
2021/03/18 08:47:02;;;;;;;8.20;4.00;;;;;;;5.01;65.15;99013.66;124239;1105;104155;-71
2021/03/18 08:49:42;;;;;;;9.63;3.83;;;;;;;5.06;65.04;99012.52;124298;1105;104162;-71
2021/03/18 08:52:35;;;;;;;12.97;4.60;;;;;;;5.05;64.90;99023.13;124183;1105;104313;-70
2021/03/18 08:55:03;;;;;;;14.90;5.33;;;;;;;6.09;64.75;99015.09;124060;1105;104236;-72
2021/03/18 08:57:32;;;;;;;15.33;5.43;;;;;;;7.38;64.35;99011.23;124064;1105;104284;-71
2021/03/18 09:00:17;;;;;;;13.27;5.20;;;;;;;7.56;65.18;99009.25;124143;1105;104204;-70
2021/03/18 09:02:46;;;;;;;14.75;5.47;;;;;;;7.15;64.13;99012.60;124202;1105;104191;-72
2021/03/18 09:05:18;;;;;;;13.00;5.47;;;;;;;6.80;64.48;99008.44;123732;1105;104258;-71
2021/03/18 09:07:51;;;;;;;15.23;5.47;;;;;;;6.65;64.81;99009.34;124113;1105;104303;-71
2021/03/18 09:10:25;;;;;;;18.53;6.90;;;;;;;6.73;64.62;99007.09;124118;1105;104262;-71
2021/03/18 09:13:03;;;;;;;13.63;5.67;;;;;;;6.58;64.39;99011.47;124061;1105;104184;-72
2021/03/18 09:15:34;;;;;;;15.50;5.75;;;;;;;6.92;64.23;99006.03;123916;1105;104213;-71
2021/03/18 09:18:13;;;;;;;16.33;5.43;;;;;;;7.35;64.37;99006.12;124152;1105;104322;-71
2021/03/18 09:20:44;;;;;;;9.27;4.20;;;;;;;7.95;64.70;99000.72;124207;1105;104270;-72
2021/03/18 09:23:13;;;;;;;13.53;5.23;;;;;;;8.49;64.65;98994.66;124242;1105;104165;-71
2021/03/18 09:25:43;;;;;;;13.37;5.20;;;;;;;8.97;64.59;98988.84;123941;1105;104232;-72
2021/03/18 09:28:12;;;;;;;10.37;4.00;;;;;;;9.43;64.38;98995.48;124231;1105;104377;-71
2021/03/18 09:30:51;;;;;;;16.20;5.53;;;;;;;9.90;64.46;98992.25;124077;1105;104204;-71
2021/03/18 09:33:26;;;;;;;11.90;4.90;;;;;;;9.95;63.45;98998.92;124219;1105;104672;-73
2021/03/18 09:35:59;;;;;;;12.25;4.55;;;;;;;9.28;62.93;98996.52;124233;1105;104281;-72
2021/03/18 09:38:33;;;;;;;14.37;4.80;;;;;;;8.92;63.15;98997.11;124124;1105;104252;-70
2021/03/18 09:41:01;;;;;;;12.27;4.63;;;;;;;8.91;63.56;98990.11;124510;1104;104206;-70
2021/03/18 09:43:30;;;;;;;12.50;4.93;;;;;;;8.81;63.09;98994.32;124261;1105;104313;-72
2021/03/18 09:46:02;;;;;;;14.63;4.87;;;;;;;8.62;63.35;98994.69;124161;1105;104185;-72
2021/03/18 09:48:33;;;;;;;16.85;5.55;;;;;;;8.97;62.91;98999.45;124206;1105;104733;-71
2021/03/18 09:51:16;;;;;;;12.30;4.70;;;;;;;9.32;63.13;98985.61;124165;1105;104207;-72
2021/03/18 09:53:55;;;;;;;12.30;4.60;;;;;;;9.78;63.37;98983.35;123918;1105;104155;-71
2021/03/18 09:56:22;;;;;;;9.00;3.60;;;;;;;10.18;63.06;98990.26;124215;1105;104329;-71
2021/03/18 09:58:50;;;;;;;10.67;4.30;;;;;;;10.48;63.54;98981.89;124251;1105;104276;-72
2021/03/18 10:01:21;;;;;;;9.70;3.90;;;;;;;10.81;62.93;98979.47;124191;1105;104159;-70
2021/03/18 10:03:59;;;;;;;13.93;4.77;;;;;;;10.57;62.38;98990.98;124246;1105;104746;-70
2021/03/18 10:06:35;;;;;;;14.53;4.90;;;;;;;10.13;62.05;98988.78;124346;1105;104159;-73
2021/03/18 10:09:33;;;;;;;14.03;4.13;;;;;;;9.57;61.63;98981.23;124372;1105;104262;-71
2021/03/18 10:12:05;;;;;;;11.67;4.20;;;;;;;9.31;61.68;98985.70;124284;1105;104165;-71
2021/03/18 10:14:36;;;;;;;10.00;3.37;;;;;;;9.38;62.04;98985.16;124001;1105;104405;-73
2021/03/18 10:17:26;;;;;;;9.45;3.85;;;;;;;9.20;61.79;98974.00;124233;1105;104256;-73
2021/03/18 10:20:01;;;;;;;7.17;3.30;;;;;;;8.85;61.53;98982.56;124253;1105;104262;-71
2021/03/18 10:22:36;;;;;;;10.27;3.70;;;;;;;8.50;61.58;98983.10;124246;1105;104306;-70
2021/03/18 10:25:06;;;;;;;12.53;4.67;;;;;;;8.33;61.60;98986.82;124192;1105;104182;-69
2021/03/18 10:27:42;;;;;;;13.10;4.23;;;;;;;8.40;61.53;98981.96;124287;1105;104726;-70
2021/03/18 10:30:43;;;;;;;12.90;4.57;;;;;;;8.32;60.91;98979.82;124195;1104;104188;-71
2021/03/18 10:33:16;;;;;;;13.97;5.03;;;;;;;8.08;60.49;98977.81;124085;1105;104226;-71
2021/03/18 10:35:46;;;;;;;;;;;;;;;7.50;60.02;98980.51;124314;1105;105347;-71
2021/03/18 10:38:15;;;;;;;12.17;4.67;;;;;;;7.15;60.22;98980.86;124170;1105;104458;-71
2021/03/18 10:40:47;;;;;;;11.63;3.90;;;;;;;6.98;60.02;98977.42;124605;1105;104252;-72
2021/03/18 10:43:18;;;;;;;9.60;3.70;;;;;;;6.76;60.56;98982.28;124007;1105;104351;-73
2021/03/18 10:45:46;;;;;;;11.03;3.73;;;;;;;6.66;60.27;98979.33;124187;1105;104213;-73
2021/03/18 10:48:19;;;;;;;7.50;3.33;;;;;;;6.59;60.41;98970.88;124155;1105;104165;-71
2021/03/18 10:50:46;;;;;;;8.78;3.47;;;;;;;6.38;60.06;98980.89;124149;1105;104271;-71
2021/03/18 10:53:14;;;;;;;11.03;4.07;;;;;;;6.37;59.91;98984.48;124184;1105;104185;-72
2021/03/18 10:55:53;;;;;;;13.67;4.80;;;;;;;6.45;60.11;98974.33;124203;1105;104223;-72
2021/03/18 10:58:24;;;;;;;14.87;4.03;;;;;;;6.44;59.79;98977.91;124182;1105;104156;-72
2021/03/18 11:01:03;;;;;;;12.93;5.00;;;;;;;6.40;59.95;98989.59;124217;1105;104278;-71
2021/03/18 11:03:35;;;;;;;14.13;5.03;;;;;;;6.31;59.72;98985.69;124274;1105;104216;-72
2021/03/18 11:06:23;;;;;;;17.43;5.93;;;;;;;6.27;59.32;98976.23;124169;1105;104235;-73
2021/03/18 11:08:52;;;;;;;12.00;4.63;;;;;;;6.21;59.71;98981.85;124226;1105;104243;-72
2021/03/18 11:11:21;;;;;;;12.20;4.25;;;;;;;6.18;59.51;98982.89;124212;1105;104258;-73
2021/03/18 11:13:49;;;;;;;11.03;4.20;;;;;;;6.14;59.35;98978.72;124312;1106;104246;-72
2021/03/18 11:16:22;;;;;;;12.67;4.67;;;;;;;6.09;59.48;98984.27;124228;1105;104258;-73
2021/03/18 11:18:55;;;;;;;18.53;6.30;;;;;;;6.01;59.14;98977.69;124296;1105;104632;-71
2021/03/18 11:21:32;;;;;;;17.50;6.60;;;;;;;5.95;58.96;98978.85;124208;1105;104165;-71
2021/03/18 11:24:14;;;;;;;18.30;5.70;;;;;;;6.00;58.96;98973.30;124250;1105;104224;-71
2021/03/18 11:26:44;;;;;;;12.35;4.60;;;;;;;5.86;58.33;98974.07;124167;1105;104182;-71
2021/03/18 11:29:13;;;;;;;9.87;4.00;;;;;;;5.56;57.83;98978.28;124272;1105;104150;-71
2021/03/18 11:31:47;;;;;;;12.20;4.40;;;;;;;5.34;58.01;98973.30;124317;1105;104277;-71
2021/03/18 11:34:22;;;;;;;13.90;4.67;;;;;;;5.25;58.10;98963.25;124134;1105;104206;-72
2021/03/18 11:36:52;;;;;;;15.10;5.15;;;;;;;5.21;58.34;98962.55;124303;1105;104181;-71
2021/03/18 11:39:21;;;;;;;14.20;5.07;;;;;;;5.41;58.56;98958.02;124281;1105;104313;-71